sensor_id;sensor_type;location;lat;lon;timestamp;temperature;humidity
78463;SHT31;67756;51.982;5.648;2024-03-06T00:00:36;10.2;68.1
78463;SHT31;67756;51.982;5.648;2024-03-06T00:03:04;10.2;68.3
78463;SHT31;67756;51.982;5.648;2024-03-06T00:05:33;10.2;68.8
78463;SHT31;67756;51.982;5.648;2024-03-06T00:08:04;10.2;68.8
78463;SHT31;67756;51.982;5.648;2024-03-06T00:10:33;10.3;67.9
78463;SHT31;67756;51.982;5.648;2024-03-06T00:13:02;10.3;67.6
78463;SHT31;67756;51.982;5.648;2024-03-06T00:15:31;10.2;67.6
78463;SHT31;67756;51.982;5.648;2024-03-06T00:18:00;10.2;67.8
78463;SHT31;67756;51.982;5.648;2024-03-06T00:20:30;10.2;68.2
78463;SHT31;67756;51.982;5.648;2024-03-06T00:22:59;10.1;67.9
78463;SHT31;67756;51.982;5.648;2024-03-06T00:25:27;10.1;67.8
78463;SHT31;67756;51.982;5.648;2024-03-06T00:27:58;10.1;67.7
78463;SHT31;67756;51.982;5.648;2024-03-06T00:30:26;10.0;67.1
78463;SHT31;67756;51.982;5.648;2024-03-06T00:32:55;10.0;67.4
78463;SHT31;67756;51.982;5.648;2024-03-06T00:35:25;9.9;67.2
78463;SHT31;67756;51.982;5.648;2024-03-06T00:37:55;9.9;66.9
78463;SHT31;67756;51.982;5.648;2024-03-06T00:40:28;9.8;67.2
78463;SHT31;67756;51.982;5.648;2024-03-06T00:42:58;9.8;67.2
78463;SHT31;67756;51.982;5.648;2024-03-06T00:45:27;9.8;67.3
78463;SHT31;67756;51.982;5.648;2024-03-06T00:47:57;9.8;67.4
78463;SHT31;67756;51.982;5.648;2024-03-06T00:50:28;9.7;66.9
78463;SHT31;67756;51.982;5.648;2024-03-06T00:52:57;9.7;67.0
78463;SHT31;67756;51.982;5.648;2024-03-06T00:55:25;9.7;67.0
78463;SHT31;67756;51.982;5.648;2024-03-06T00:57:54;9.6;67.2
78463;SHT31;67756;51.982;5.648;2024-03-06T01:00:23;9.6;67.2
78463;SHT31;67756;51.982;5.648;2024-03-06T01:02:51;9.6;67.4
78463;SHT31;67756;51.982;5.648;2024-03-06T01:05:20;9.5;67.3
78463;SHT31;67756;51.982;5.648;2024-03-06T01:07:49;9.5;67.5
78463;SHT31;67756;51.982;5.648;2024-03-06T01:10:18;9.4;67.9
78463;SHT31;67756;51.982;5.648;2024-03-06T01:12:46;9.4;67.7
78463;SHT31;67756;51.982;5.648;2024-03-06T01:15:15;9.4;68.2
78463;SHT31;67756;51.982;5.648;2024-03-06T01:17:44;9.3;67.8
78463;SHT31;67756;51.982;5.648;2024-03-06T01:20:13;9.3;67.9
78463;SHT31;67756;51.982;5.648;2024-03-06T01:22:42;9.2;67.8
78463;SHT31;67756;51.982;5.648;2024-03-06T01:25:12;9.2;67.9
78463;SHT31;67756;51.982;5.648;2024-03-06T01:27:41;9.2;67.8
78463;SHT31;67756;51.982;5.648;2024-03-06T01:30:12;9.1;67.7
78463;SHT31;67756;51.982;5.648;2024-03-06T01:32:42;9.1;67.6
78463;SHT31;67756;51.982;5.648;2024-03-06T01:35:11;9.1;67.6
78463;SHT31;67756;51.982;5.648;2024-03-06T01:37:41;9.1;67.7
78463;SHT31;67756;51.982;5.648;2024-03-06T01:40:11;9.0;67.8
78463;SHT31;67756;51.982;5.648;2024-03-06T01:42:40;9.0;67.7
78463;SHT31;67756;51.982;5.648;2024-03-06T01:45:09;9.0;67.5
78463;SHT31;67756;51.982;5.648;2024-03-06T01:47:38;8.9;67.7
78463;SHT31;67756;51.982;5.648;2024-03-06T01:50:08;8.9;67.7
78463;SHT31;67756;51.982;5.648;2024-03-06T01:52:40;8.9;67.7
78463;SHT31;67756;51.982;5.648;2024-03-06T01:55:11;8.9;67.6
78463;SHT31;67756;51.982;5.648;2024-03-06T01:57:41;8.8;67.3
78463;SHT31;67756;51.982;5.648;2024-03-06T02:00:11;8.8;67.7
78463;SHT31;67756;51.982;5.648;2024-03-06T02:02:44;8.8;68.0
78463;SHT31;67756;51.982;5.648;2024-03-06T02:05:15;8.8;68.7
78463;SHT31;67756;51.982;5.648;2024-03-06T02:07:47;8.9;67.7
78463;SHT31;67756;51.982;5.648;2024-03-06T02:10:20;8.9;67.7
78463;SHT31;67756;51.982;5.648;2024-03-06T02:12:53;8.9;66.8
78463;SHT31;67756;51.982;5.648;2024-03-06T02:15:27;9.0;67.1
78463;SHT31;67756;51.982;5.648;2024-03-06T02:17:58;9.0;66.8
78463;SHT31;67756;51.982;5.648;2024-03-06T02:20:32;9.1;66.2
78463;SHT31;67756;51.982;5.648;2024-03-06T02:23:02;9.1;66.1
78463;SHT31;67756;51.982;5.648;2024-03-06T02:25:30;9.2;65.8
78463;SHT31;67756;51.982;5.648;2024-03-06T02:27:59;9.2;65.2
78463;SHT31;67756;51.982;5.648;2024-03-06T02:30:27;9.1;64.8
78463;SHT31;67756;51.982;5.648;2024-03-06T02:32:57;9.1;65.3
78463;SHT31;67756;51.982;5.648;2024-03-06T02:35:25;9.1;65.0
78463;SHT31;67756;51.982;5.648;2024-03-06T02:37:54;9.0;64.4
78463;SHT31;67756;51.982;5.648;2024-03-06T02:40:23;9.0;65.2
78463;SHT31;67756;51.982;5.648;2024-03-06T02:42:51;8.9;65.1
78463;SHT31;67756;51.982;5.648;2024-03-06T02:45:22;8.9;64.9
78463;SHT31;67756;51.982;5.648;2024-03-06T02:47:50;8.8;65.6
78463;SHT31;67756;51.982;5.648;2024-03-06T02:50:19;8.7;65.5
78463;SHT31;67756;51.982;5.648;2024-03-06T02:52:49;8.7;65.7
78463;SHT31;67756;51.982;5.648;2024-03-06T02:55:21;8.7;65.9
78463;SHT31;67756;51.982;5.648;2024-03-06T02:57:50;8.6;66.1
78463;SHT31;67756;51.982;5.648;2024-03-06T03:00:18;8.6;65.8
78463;SHT31;67756;51.982;5.648;2024-03-06T03:02:48;8.6;65.9
78463;SHT31;67756;51.982;5.648;2024-03-06T03:05:17;8.6;65.4
78463;SHT31;67756;51.982;5.648;2024-03-06T03:07:45;8.6;64.9
78463;SHT31;67756;51.982;5.648;2024-03-06T03:10:14;8.6;65.0
78463;SHT31;67756;51.982;5.648;2024-03-06T03:12:43;8.5;65.0
78463;SHT31;67756;51.982;5.648;2024-03-06T03:15:14;8.5;64.9
78463;SHT31;67756;51.982;5.648;2024-03-06T03:17:44;8.4;64.3
78463;SHT31;67756;51.982;5.648;2024-03-06T03:20:13;8.4;64.8
78463;SHT31;67756;51.982;5.648;2024-03-06T03:22:43;8.4;65.1
78463;SHT31;67756;51.982;5.648;2024-03-06T03:25:13;8.3;65.0
78463;SHT31;67756;51.982;5.648;2024-03-06T03:27:41;8.2;65.1
78463;SHT31;67756;51.982;5.648;2024-03-06T03:30:11;8.2;65.2
78463;SHT31;67756;51.982;5.648;2024-03-06T03:32:39;8.1;65.6
78463;SHT31;67756;51.982;5.648;2024-03-06T03:35:11;8.1;66.4
78463;SHT31;67756;51.982;5.648;2024-03-06T03:37:39;8.1;66.1
78463;SHT31;67756;51.982;5.648;2024-03-06T03:40:11;8.0;65.5
78463;SHT31;67756;51.982;5.648;2024-03-06T03:42:40;8.1;65.6
78463;SHT31;67756;51.982;5.648;2024-03-06T03:45:09;8.1;66.1
78463;SHT31;67756;51.982;5.648;2024-03-06T03:47:38;8.1;66.5
78463;SHT31;67756;51.982;5.648;2024-03-06T03:50:07;8.1;66.9
78463;SHT31;67756;51.982;5.648;2024-03-06T03:52:37;8.1;65.8
78463;SHT31;67756;51.982;5.648;2024-03-06T03:55:08;8.0;65.9
78463;SHT31;67756;51.982;5.648;2024-03-06T03:57:37;8.0;64.8
78463;SHT31;67756;51.982;5.648;2024-03-06T04:00:06;8.0;65.0
78463;SHT31;67756;51.982;5.648;2024-03-06T04:02:37;7.9;64.2
78463;SHT31;67756;51.982;5.648;2024-03-06T04:05:06;7.9;63.2
78463;SHT31;67756;51.982;5.648;2024-03-06T04:07:37;7.8;63.4
78463;SHT31;67756;51.982;5.648;2024-03-06T04:10:06;7.7;63.8
78463;SHT31;67756;51.982;5.648;2024-03-06T04:12:37;7.7;64.5
78463;SHT31;67756;51.982;5.648;2024-03-06T04:15:08;7.7;65.2
78463;SHT31;67756;51.982;5.648;2024-03-06T04:17:36;7.7;64.5
78463;SHT31;67756;51.982;5.648;2024-03-06T04:20:07;7.7;64.3
78463;SHT31;67756;51.982;5.648;2024-03-06T04:22:42;7.7;64.6
78463;SHT31;67756;51.982;5.648;2024-03-06T04:25:13;7.7;64.9
78463;SHT31;67756;51.982;5.648;2024-03-06T04:27:41;7.8;64.3
78463;SHT31;67756;51.982;5.648;2024-03-06T04:30:11;7.8;63.3
78463;SHT31;67756;51.982;5.648;2024-03-06T04:32:40;7.7;63.8
78463;SHT31;67756;51.982;5.648;2024-03-06T04:35:09;7.7;63.6
78463;SHT31;67756;51.982;5.648;2024-03-06T04:37:38;7.7;63.9
78463;SHT31;67756;51.982;5.648;2024-03-06T04:40:08;7.6;63.8
78463;SHT31;67756;51.982;5.648;2024-03-06T04:42:37;7.6;64.1
78463;SHT31;67756;51.982;5.648;2024-03-06T04:45:09;7.6;64.3
78463;SHT31;67756;51.982;5.648;2024-03-06T04:47:38;7.5;64.2
78463;SHT31;67756;51.982;5.648;2024-03-06T04:50:11;7.5;64.3
78463;SHT31;67756;51.982;5.648;2024-03-06T04:52:40;7.4;64.6
78463;SHT31;67756;51.982;5.648;2024-03-06T04:55:11;7.4;64.8
78463;SHT31;67756;51.982;5.648;2024-03-06T04:57:42;7.4;65.0
78463;SHT31;67756;51.982;5.648;2024-03-06T05:00:12;7.3;65.3
78463;SHT31;67756;51.982;5.648;2024-03-06T05:02:41;7.3;65.5
78463;SHT31;67756;51.982;5.648;2024-03-06T05:05:10;7.3;65.8
78463;SHT31;67756;51.982;5.648;2024-03-06T05:07:39;7.2;65.9
78463;SHT31;67756;51.982;5.648;2024-03-06T05:10:08;7.2;66.0
78463;SHT31;67756;51.982;5.648;2024-03-06T05:12:38;7.2;66.2
78463;SHT31;67756;51.982;5.648;2024-03-06T05:15:07;7.2;65.8
78463;SHT31;67756;51.982;5.648;2024-03-06T05:17:36;7.2;66.3
78463;SHT31;67756;51.982;5.648;2024-03-06T05:20:05;7.1;66.0
78463;SHT31;67756;51.982;5.648;2024-03-06T05:22:34;7.1;66.1
78463;SHT31;67756;51.982;5.648;2024-03-06T05:25:03;7.1;66.4
78463;SHT31;67756;51.982;5.648;2024-03-06T05:27:32;7.1;66.8
78463;SHT31;67756;51.982;5.648;2024-03-06T05:30:00;7.1;65.8
78463;SHT31;67756;51.982;5.648;2024-03-06T05:32:31;7.1;66.5
78463;SHT31;67756;51.982;5.648;2024-03-06T05:34:59;7.1;65.9
78463;SHT31;67756;51.982;5.648;2024-03-06T05:37:28;7.1;65.8
78463;SHT31;67756;51.982;5.648;2024-03-06T05:39:57;7.0;65.8
78463;SHT31;67756;51.982;5.648;2024-03-06T05:42:27;7.0;65.4
78463;SHT31;67756;51.982;5.648;2024-03-06T05:44:57;7.0;65.9
78463;SHT31;67756;51.982;5.648;2024-03-06T05:47:30;7.0;65.2
78463;SHT31;67756;51.982;5.648;2024-03-06T05:49:59;7.0;65.9
78463;SHT31;67756;51.982;5.648;2024-03-06T05:52:31;7.0;65.6
78463;SHT31;67756;51.982;5.648;2024-03-06T05:55:00;7.0;65.6
78463;SHT31;67756;51.982;5.648;2024-03-06T05:57:28;7.0;65.2
78463;SHT31;67756;51.982;5.648;2024-03-06T05:59:57;7.0;65.6
78463;SHT31;67756;51.982;5.648;2024-03-06T06:02:27;7.0;65.2
78463;SHT31;67756;51.982;5.648;2024-03-06T06:04:56;7.0;64.8
78463;SHT31;67756;51.982;5.648;2024-03-06T06:07:25;7.0;64.7
78463;SHT31;67756;51.982;5.648;2024-03-06T06:09:53;7.0;64.7
78463;SHT31;67756;51.982;5.648;2024-03-06T06:12:22;7.0;64.9
78463;SHT31;67756;51.982;5.648;2024-03-06T06:14:51;7.0;65.1
78463;SHT31;67756;51.982;5.648;2024-03-06T06:17:19;6.9;65.6
78463;SHT31;67756;51.982;5.648;2024-03-06T06:19:49;6.9;67.0
78463;SHT31;67756;51.982;5.648;2024-03-06T06:22:17;7.0;68.6
78463;SHT31;67756;51.982;5.648;2024-03-06T06:24:46;7.1;68.1
78463;SHT31;67756;51.982;5.648;2024-03-06T06:27:16;7.2;68.1
78463;SHT31;67756;51.982;5.648;2024-03-06T06:29:44;7.2;68.3
78463;SHT31;67756;51.982;5.648;2024-03-06T06:32:13;7.3;69.5
78463;SHT31;67756;51.982;5.648;2024-03-06T06:34:42;7.4;70.2
78463;SHT31;67756;51.982;5.648;2024-03-06T06:37:12;7.5;71.0
78463;SHT31;67756;51.982;5.648;2024-03-06T06:39:41;7.5;72.0
78463;SHT31;67756;51.982;5.648;2024-03-06T06:42:09;7.6;73.2
78463;SHT31;67756;51.982;5.648;2024-03-06T06:44:39;7.6;74.1
78463;SHT31;67756;51.982;5.648;2024-03-06T06:47:08;7.7;74.4
78463;SHT31;67756;51.982;5.648;2024-03-06T06:49:37;7.7;75.0
78463;SHT31;67756;51.982;5.648;2024-03-06T06:52:05;7.7;75.1
78463;SHT31;67756;51.982;5.648;2024-03-06T06:54:36;7.8;75.4
78463;SHT31;67756;51.982;5.648;2024-03-06T06:57:05;7.8;75.4
78463;SHT31;67756;51.982;5.648;2024-03-06T06:59:34;7.9;75.4
78463;SHT31;67756;51.982;5.648;2024-03-06T07:02:05;7.9;75.5
78463;SHT31;67756;51.982;5.648;2024-03-06T07:04:34;7.9;75.7
78463;SHT31;67756;51.982;5.648;2024-03-06T07:07:03;8.0;74.4
78463;SHT31;67756;51.982;5.648;2024-03-06T07:09:33;8.0;73.9
78463;SHT31;67756;51.982;5.648;2024-03-06T07:12:03;8.1;73.5
78463;SHT31;67756;51.982;5.648;2024-03-06T07:14:32;8.2;73.2
78463;SHT31;67756;51.982;5.648;2024-03-06T07:17:01;8.2;72.9
78463;SHT31;67756;51.982;5.648;2024-03-06T07:19:29;8.2;72.4
78463;SHT31;67756;51.982;5.648;2024-03-06T07:21:58;8.2;72.2
78463;SHT31;67756;51.982;5.648;2024-03-06T07:24:26;8.1;72.2
78463;SHT31;67756;51.982;5.648;2024-03-06T07:26:55;8.1;72.4
78463;SHT31;67756;51.982;5.648;2024-03-06T07:29:24;8.1;72.4
78463;SHT31;67756;51.982;5.648;2024-03-06T07:31:55;8.1;72.2
78463;SHT31;67756;51.982;5.648;2024-03-06T07:34:23;8.1;72.0
78463;SHT31;67756;51.982;5.648;2024-03-06T07:36:52;8.1;71.7
78463;SHT31;67756;51.982;5.648;2024-03-06T07:39:21;8.0;72.2
78463;SHT31;67756;51.982;5.648;2024-03-06T07:41:51;8.1;72.4
78463;SHT31;67756;51.982;5.648;2024-03-06T07:44:20;8.1;72.0
78463;SHT31;67756;51.982;5.648;2024-03-06T07:46:51;8.1;72.1
78463;SHT31;67756;51.982;5.648;2024-03-06T07:49:21;8.1;72.0
78463;SHT31;67756;51.982;5.648;2024-03-06T07:51:50;8.0;72.3
78463;SHT31;67756;51.982;5.648;2024-03-06T07:54:22;8.0;72.9
78463;SHT31;67756;51.982;5.648;2024-03-06T07:56:50;8.1;72.7
78463;SHT31;67756;51.982;5.648;2024-03-06T07:59:20;8.1;72.9
78463;SHT31;67756;51.982;5.648;2024-03-06T08:01:48;8.1;73.1
78463;SHT31;67756;51.982;5.648;2024-03-06T08:04:18;8.1;72.8
78463;SHT31;67756;51.982;5.648;2024-03-06T08:06:47;8.2;72.7
78463;SHT31;67756;51.982;5.648;2024-03-06T08:09:16;8.2;72.4
78463;SHT31;67756;51.982;5.648;2024-03-06T08:11:45;8.2;72.4
78463;SHT31;67756;51.982;5.648;2024-03-06T08:14:15;8.3;72.3
78463;SHT31;67756;51.982;5.648;2024-03-06T08:16:44;8.4;72.4
78463;SHT31;67756;51.982;5.648;2024-03-06T08:19:13;8.5;71.8
78463;SHT31;67756;51.982;5.648;2024-03-06T08:21:41;8.5;71.1
78463;SHT31;67756;51.982;5.648;2024-03-06T08:24:12;8.5;70.7
78463;SHT31;67756;51.982;5.648;2024-03-06T08:26:41;8.5;71.0
78463;SHT31;67756;51.982;5.648;2024-03-06T08:29:10;8.4;71.7
78463;SHT31;67756;51.982;5.648;2024-03-06T08:31:38;8.4;72.0
78463;SHT31;67756;51.982;5.648;2024-03-06T08:34:09;8.4;72.8
78463;SHT31;67756;51.982;5.648;2024-03-06T08:36:37;8.5;73.2
78463;SHT31;67756;51.982;5.648;2024-03-06T08:39:06;8.6;72.3
78463;SHT31;67756;51.982;5.648;2024-03-06T08:41:39;8.6;72.2
78463;SHT31;67756;51.982;5.648;2024-03-06T08:44:08;8.7;72.3
78463;SHT31;67756;51.982;5.648;2024-03-06T08:46:37;8.7;73.0
78463;SHT31;67756;51.982;5.648;2024-03-06T08:49:06;8.8;72.7
78463;SHT31;67756;51.982;5.648;2024-03-06T08:51:35;8.8;72.3
78463;SHT31;67756;51.982;5.648;2024-03-06T08:54:03;8.8;72.6
78463;SHT31;67756;51.982;5.648;2024-03-06T08:56:32;8.9;72.6
78463;SHT31;67756;51.982;5.648;2024-03-06T08:59:01;8.8;73.0
78463;SHT31;67756;51.982;5.648;2024-03-06T09:01:30;8.8;73.3
78463;SHT31;67756;51.982;5.648;2024-03-06T09:03:59;8.8;73.3
78463;SHT31;67756;51.982;5.648;2024-03-06T09:06:28;8.8;73.8
78463;SHT31;67756;51.982;5.648;2024-03-06T09:08:56;8.8;74.4
78463;SHT31;67756;51.982;5.648;2024-03-06T09:11:25;8.8;74.9
78463;SHT31;67756;51.982;5.648;2024-03-06T09:13:53;8.9;74.9
78463;SHT31;67756;51.982;5.648;2024-03-06T09:16:22;8.9;74.8
78463;SHT31;67756;51.982;5.648;2024-03-06T09:18:51;9.0;74.7
78463;SHT31;67756;51.982;5.648;2024-03-06T09:21:20;9.1;74.8
78463;SHT31;67756;51.982;5.648;2024-03-06T09:23:50;9.2;74.7
78463;SHT31;67756;51.982;5.648;2024-03-06T09:26:19;9.3;74.3
78463;SHT31;67756;51.982;5.648;2024-03-06T09:28:48;9.3;74.2
78463;SHT31;67756;51.982;5.648;2024-03-06T09:31:17;9.4;74.4
78463;SHT31;67756;51.982;5.648;2024-03-06T09:33:46;9.4;73.6
78463;SHT31;67756;51.982;5.648;2024-03-06T09:36:15;9.5;73.4
78463;SHT31;67756;51.982;5.648;2024-03-06T09:38:43;9.5;73.1
78463;SHT31;67756;51.982;5.648;2024-03-06T09:41:12;9.5;72.7
78463;SHT31;67756;51.982;5.648;2024-03-06T09:43:43;9.6;73.1
78463;SHT31;67756;51.982;5.648;2024-03-06T09:46:13;9.6;74.0
78463;SHT31;67756;51.982;5.648;2024-03-06T09:48:46;9.6;74.3
78463;SHT31;67756;51.982;5.648;2024-03-06T09:51:15;9.6;74.7
78463;SHT31;67756;51.982;5.648;2024-03-06T09:53:43;9.7;74.8
78463;SHT31;67756;51.982;5.648;2024-03-06T09:56:12;9.7;74.4
78463;SHT31;67756;51.982;5.648;2024-03-06T09:58:40;9.8;74.5
78463;SHT31;67756;51.982;5.648;2024-03-06T10:01:12;9.9;73.8
78463;SHT31;67756;51.982;5.648;2024-03-06T10:03:43;10.0;73.2
78463;SHT31;67756;51.982;5.648;2024-03-06T10:06:13;10.1;72.7
78463;SHT31;67756;51.982;5.648;2024-03-06T10:08:44;10.2;72.4
78463;SHT31;67756;51.982;5.648;2024-03-06T10:11:15;10.2;72.5
78463;SHT31;67756;51.982;5.648;2024-03-06T10:13:46;10.2;72.0
78463;SHT31;67756;51.982;5.648;2024-03-06T10:16:15;10.3;72.2
78463;SHT31;67756;51.982;5.648;2024-03-06T10:18:46;10.3;73.0
78463;SHT31;67756;51.982;5.648;2024-03-06T10:21:14;10.3;73.7
78463;SHT31;67756;51.982;5.648;2024-03-06T10:23:47;10.4;72.7
78463;SHT31;67756;51.982;5.648;2024-03-06T10:26:17;10.4;72.1
78463;SHT31;67756;51.982;5.648;2024-03-06T10:28:48;10.5;71.7
78463;SHT31;67756;51.982;5.648;2024-03-06T10:31:28;10.5;71.6
78463;SHT31;67756;51.982;5.648;2024-03-06T10:33:56;10.5;72.6
78463;SHT31;67756;51.982;5.648;2024-03-06T10:36:31;10.5;72.3
78463;SHT31;67756;51.982;5.648;2024-03-06T10:39:02;10.5;71.7
78463;SHT31;67756;51.982;5.648;2024-03-06T10:41:33;10.5;72.2
78463;SHT31;67756;51.982;5.648;2024-03-06T10:44:04;10.6;71.9
78463;SHT31;67756;51.982;5.648;2024-03-06T10:46:35;10.6;71.5
78463;SHT31;67756;51.982;5.648;2024-03-06T10:49:04;10.6;71.2
78463;SHT31;67756;51.982;5.648;2024-03-06T10:51:36;10.7;71.9
78463;SHT31;67756;51.982;5.648;2024-03-06T10:54:08;10.8;72.8
78463;SHT31;67756;51.982;5.648;2024-03-06T10:56:39;10.9;72.2
78463;SHT31;67756;51.982;5.648;2024-03-06T10:59:11;11.1;71.9
78463;SHT31;67756;51.982;5.648;2024-03-06T11:01:45;11.4;70.9
78463;SHT31;67756;51.982;5.648;2024-03-06T11:04:17;11.7;70.5
78463;SHT31;67756;51.982;5.648;2024-03-06T11:06:49;11.9;68.0
78463;SHT31;67756;51.982;5.648;2024-03-06T11:09:26;12.1;68.3
78463;SHT31;67756;51.982;5.648;2024-03-06T11:11:55;12.3;68.1
78463;SHT31;67756;51.982;5.648;2024-03-06T11:14:25;12.4;66.6
78463;SHT31;67756;51.982;5.648;2024-03-06T11:17:02;12.5;65.4
78463;SHT31;67756;51.982;5.648;2024-03-06T11:19:32;12.6;64.6
78463;SHT31;67756;51.982;5.648;2024-03-06T11:22:01;12.6;64.9
78463;SHT31;67756;51.982;5.648;2024-03-06T11:24:35;12.6;64.6
78463;SHT31;67756;51.982;5.648;2024-03-06T11:27:06;12.6;64.3
78463;SHT31;67756;51.982;5.648;2024-03-06T11:30:04;12.5;64.7
78463;SHT31;67756;51.982;5.648;2024-03-06T11:32:37;12.6;65.1
78463;SHT31;67756;51.982;5.648;2024-03-06T11:35:07;12.6;66.2
78463;SHT31;67756;51.982;5.648;2024-03-06T11:37:37;12.7;65.8
78463;SHT31;67756;51.982;5.648;2024-03-06T11:40:10;13.1;65.5
78463;SHT31;67756;51.982;5.648;2024-03-06T11:42:40;13.4;63.7
78463;SHT31;67756;51.982;5.648;2024-03-06T11:45:16;13.7;64.1
78463;SHT31;67756;51.982;5.648;2024-03-06T11:47:59;14.1;64.2
78463;SHT31;67756;51.982;5.648;2024-03-06T11:50:29;14.6;60.5
78463;SHT31;67756;51.982;5.648;2024-03-06T11:52:59;14.9;59.4
78463;SHT31;67756;51.982;5.648;2024-03-06T11:55:30;15.0;59.5
78463;SHT31;67756;51.982;5.648;2024-03-06T11:58:01;15.2;57.6
78463;SHT31;67756;51.982;5.648;2024-03-06T12:00:32;15.3;57.7
78463;SHT31;67756;51.982;5.648;2024-03-06T12:03:00;15.6;59.0
78463;SHT31;67756;51.982;5.648;2024-03-06T12:05:30;15.8;56.1
78463;SHT31;67756;51.982;5.648;2024-03-06T12:07:59;16.0;56.1
78463;SHT31;67756;51.982;5.648;2024-03-06T12:10:29;16.1;54.2
78463;SHT31;67756;51.982;5.648;2024-03-06T12:12:58;16.2;55.0
78463;SHT31;67756;51.982;5.648;2024-03-06T12:15:26;16.3;54.4
78463;SHT31;67756;51.982;5.648;2024-03-06T12:17:55;16.4;54.2
78463;SHT31;67756;51.982;5.648;2024-03-06T12:20:25;16.5;55.4
78463;SHT31;67756;51.982;5.648;2024-03-06T12:22:56;16.6;53.6
78463;SHT31;67756;51.982;5.648;2024-03-06T12:25:26;16.8;53.0
78463;SHT31;67756;51.982;5.648;2024-03-06T12:28:07;17.1;51.5
78463;SHT31;67756;51.982;5.648;2024-03-06T12:30:41;17.4;50.4
78463;SHT31;67756;51.982;5.648;2024-03-06T12:33:18;17.6;50.0
78463;SHT31;67756;51.982;5.648;2024-03-06T12:35:46;17.9;49.5
78463;SHT31;67756;51.982;5.648;2024-03-06T12:38:16;18.2;49.7
78463;SHT31;67756;51.982;5.648;2024-03-06T12:40:45;18.4;49.0
78463;SHT31;67756;51.982;5.648;2024-03-06T12:43:13;18.7;48.4
78463;SHT31;67756;51.982;5.648;2024-03-06T12:45:42;19.0;47.5
78463;SHT31;67756;51.982;5.648;2024-03-06T12:48:12;19.2;47.0
78463;SHT31;67756;51.982;5.648;2024-03-06T12:50:41;19.5;47.7
78463;SHT31;67756;51.982;5.648;2024-03-06T12:53:13;19.8;45.2
78463;SHT31;67756;51.982;5.648;2024-03-06T12:55:41;20.0;44.2
78463;SHT31;67756;51.982;5.648;2024-03-06T12:58:12;20.1;43.8
78463;SHT31;67756;51.982;5.648;2024-03-06T13:00:41;20.2;44.0
78463;SHT31;67756;51.982;5.648;2024-03-06T13:03:10;20.3;43.0
78463;SHT31;67756;51.982;5.648;2024-03-06T13:05:38;20.4;42.7
78463;SHT31;67756;51.982;5.648;2024-03-06T13:08:07;20.5;43.1
78463;SHT31;67756;51.982;5.648;2024-03-06T13:10:36;20.7;42.0
78463;SHT31;67756;51.982;5.648;2024-03-06T13:13:07;20.8;41.9
78463;SHT31;67756;51.982;5.648;2024-03-06T13:15:35;21.0;41.5
78463;SHT31;67756;51.982;5.648;2024-03-06T13:18:05;21.1;40.8
78463;SHT31;67756;51.982;5.648;2024-03-06T13:20:34;21.2;41.0
78463;SHT31;67756;51.982;5.648;2024-03-06T13:23:03;21.3;40.6
78463;SHT31;67756;51.982;5.648;2024-03-06T13:25:32;21.5;39.8
78463;SHT31;67756;51.982;5.648;2024-03-06T13:28:02;21.8;39.7
78463;SHT31;67756;51.982;5.648;2024-03-06T13:30:31;22.1;40.0
78463;SHT31;67756;51.982;5.648;2024-03-06T13:33:00;22.3;38.0
78463;SHT31;67756;51.982;5.648;2024-03-06T13:35:29;22.5;39.2
78463;SHT31;67756;51.982;5.648;2024-03-06T13:37:57;22.8;36.9
78463;SHT31;67756;51.982;5.648;2024-03-06T13:40:26;23.0;35.9
78463;SHT31;67756;51.982;5.648;2024-03-06T13:42:55;23.2;35.5
78463;SHT31;67756;51.982;5.648;2024-03-06T13:45:27;23.3;34.8
78463;SHT31;67756;51.982;5.648;2024-03-06T13:47:55;23.4;35.5
78463;SHT31;67756;51.982;5.648;2024-03-06T13:50:25;23.5;34.8
78463;SHT31;67756;51.982;5.648;2024-03-06T13:52:55;23.5;34.3
78463;SHT31;67756;51.982;5.648;2024-03-06T13:55:24;23.6;33.7
78463;SHT31;67756;51.982;5.648;2024-03-06T13:57:55;23.6;33.8
78463;SHT31;67756;51.982;5.648;2024-03-06T14:00:25;23.6;33.7
78463;SHT31;67756;51.982;5.648;2024-03-06T14:02:56;23.4;34.9
78463;SHT31;67756;51.982;5.648;2024-03-06T14:05:25;23.3;34.9
78463;SHT31;67756;51.982;5.648;2024-03-06T14:07:55;23.2;35.9
78463;SHT31;67756;51.982;5.648;2024-03-06T14:10:24;23.1;34.9
78463;SHT31;67756;51.982;5.648;2024-03-06T14:12:53;23.0;34.6
78463;SHT31;67756;51.982;5.648;2024-03-06T14:15:22;22.9;35.0
78463;SHT31;67756;51.982;5.648;2024-03-06T14:17:52;22.8;35.1
78463;SHT31;67756;51.982;5.648;2024-03-06T14:20:22;22.7;35.0
78463;SHT31;67756;51.982;5.648;2024-03-06T14:22:51;22.5;35.0
78463;SHT31;67756;51.982;5.648;2024-03-06T14:25:20;22.3;36.9
78463;SHT31;67756;51.982;5.648;2024-03-06T14:27:49;22.2;37.1
78463;SHT31;67756;51.982;5.648;2024-03-06T14:30:17;22.1;35.8
78463;SHT31;67756;51.982;5.648;2024-03-06T14:32:46;22.1;36.4
78463;SHT31;67756;51.982;5.648;2024-03-06T14:35:15;22.0;34.6
78463;SHT31;67756;51.982;5.648;2024-03-06T14:37:44;22.0;34.3
78463;SHT31;67756;51.982;5.648;2024-03-06T14:40:15;21.7;34.6
78463;SHT31;67756;51.982;5.648;2024-03-06T14:42:44;21.4;34.4
78463;SHT31;67756;51.982;5.648;2024-03-06T14:45:12;21.1;35.2
78463;SHT31;67756;51.982;5.648;2024-03-06T14:47:43;20.9;36.0
78463;SHT31;67756;51.982;5.648;2024-03-06T14:50:12;20.7;35.2
78463;SHT31;67756;51.982;5.648;2024-03-06T14:52:40;20.6;36.2
78463;SHT31;67756;51.982;5.648;2024-03-06T14:55:11;20.5;36.4
78463;SHT31;67756;51.982;5.648;2024-03-06T14:57:40;20.4;36.5
78463;SHT31;67756;51.982;5.648;2024-03-06T15:00:09;20.4;38.5
78463;SHT31;67756;51.982;5.648;2024-03-06T15:02:39;20.4;37.1
78463;SHT31;67756;51.982;5.648;2024-03-06T15:05:09;20.3;36.9
78463;SHT31;67756;51.982;5.648;2024-03-06T15:07:38;20.1;37.0
78463;SHT31;67756;51.982;5.648;2024-03-06T15:10:08;19.9;36.9
78463;SHT31;67756;51.982;5.648;2024-03-06T15:12:37;19.7;38.0
78463;SHT31;67756;51.982;5.648;2024-03-06T15:15:09;19.6;39.6
78463;SHT31;67756;51.982;5.648;2024-03-06T15:17:37;19.5;40.0
78463;SHT31;67756;51.982;5.648;2024-03-06T15:20:07;19.5;38.7
78463;SHT31;67756;51.982;5.648;2024-03-06T15:22:36;19.5;39.6
78463;SHT31;67756;51.982;5.648;2024-03-06T15:25:08;19.5;39.5
78463;SHT31;67756;51.982;5.648;2024-03-06T15:27:37;19.3;38.6
78463;SHT31;67756;51.982;5.648;2024-03-06T15:30:07;19.1;39.4
78463;SHT31;67756;51.982;5.648;2024-03-06T15:32:38;19.0;38.7
78463;SHT31;67756;51.982;5.648;2024-03-06T15:35:07;18.8;39.7
78463;SHT31;67756;51.982;5.648;2024-03-06T15:37:36;18.6;40.5
78463;SHT31;67756;51.982;5.648;2024-03-06T15:40:05;18.5;40.7
78463;SHT31;67756;51.982;5.648;2024-03-06T15:42:36;18.4;40.7
78463;SHT31;67756;51.982;5.648;2024-03-06T15:45:07;18.3;40.7
78463;SHT31;67756;51.982;5.648;2024-03-06T15:47:36;18.2;40.8
78463;SHT31;67756;51.982;5.648;2024-03-06T15:50:05;18.0;41.9
78463;SHT31;67756;51.982;5.648;2024-03-06T15:52:37;17.9;42.9
78463;SHT31;67756;51.982;5.648;2024-03-06T15:55:07;17.8;41.8
78463;SHT31;67756;51.982;5.648;2024-03-06T15:57:39;17.8;44.1
78463;SHT31;67756;51.982;5.648;2024-03-06T16:00:18;17.7;43.2
78463;SHT31;67756;51.982;5.648;2024-03-06T16:02:48;17.7;43.7
78463;SHT31;67756;51.982;5.648;2024-03-06T16:05:16;17.7;42.5
78463;SHT31;67756;51.982;5.648;2024-03-06T16:07:45;17.6;43.2
78463;SHT31;67756;51.982;5.648;2024-03-06T16:10:17;17.6;42.6
78463;SHT31;67756;51.982;5.648;2024-03-06T16:12:48;17.6;43.4
78463;SHT31;67756;51.982;5.648;2024-03-06T16:15:16;17.6;43.1
78463;SHT31;67756;51.982;5.648;2024-03-06T16:17:45;17.6;43.1
78463;SHT31;67756;51.982;5.648;2024-03-06T16:20:14;17.5;44.7
78463;SHT31;67756;51.982;5.648;2024-03-06T16:22:43;17.5;46.1
78463;SHT31;67756;51.982;5.648;2024-03-06T16:25:12;17.4;46.5
78463;SHT31;67756;51.982;5.648;2024-03-06T16:27:41;17.4;47.2